Time;durP1;ratioP1;P1;durP2;ratioP2;P2;SDS_P1;SDS_P2;PMS_P1;PMS_P2;Temp;Humidity;BMP_temperature;BMP_pressure;BME280_temperature;BME280_humidity;BME280_pressure;Samples;Min_cycle;Max_cycle;Signal;HPM_P1;HPM_P2
2024/03/25 00:00:10;;;;;;;12.20;4.68;;;5.70;99.90;;;;;;5051949;28;20059;-62
2024/03/25 00:02:37;;;;;;;8.63;4.40;;;5.70;99.90;;;;;;5052378;28;20056;-62
2024/03/25 00:05:03;;;;;;;10.20;4.90;;;5.70;99.90;;;;;;5051925;28;20049;-62
2024/03/25 00:07:28;;;;;;;14.25;5.13;;;5.70;99.90;;;;;;5035408;28;20049;-63
2024/03/25 00:09:55;;;;;;;11.75;4.50;;;5.70;99.90;;;;;;5051864;28;20060;-62
2024/03/25 00:12:20;;;;;;;11.88;4.70;;;5.70;99.90;;;;;;5051888;28;20124;-62
2024/03/25 00:14:46;;;;;;;13.82;4.75;;;5.70;99.90;;;;;;5052303;28;20382;-63
2024/03/25 00:17:13;;;;;;;11.43;5.22;;;5.70;99.90;;;;;;5052013;28;20103;-62
2024/03/25 00:19:39;;;;;;;8.27;4.45;;;5.70;99.90;;;;;;5051967;28;20435;-62
2024/03/25 00:22:05;;;;;;;11.00;4.78;;;5.70;99.90;;;;;;5052188;28;20174;-62
2024/03/25 00:24:31;;;;;;;8.82;4.68;;;5.70;99.90;;;;;;5052244;28;20084;-60
2024/03/25 00:26:57;;;;;;;16.88;4.50;;;5.70;99.90;;;;;;5052916;28;20090;-63
2024/03/25 00:29:22;;;;;;;12.50;4.57;;;5.70;99.90;;;;;;5056297;28;20044;-66
2024/03/25 00:31:48;;;;;;;12.68;4.45;;;5.70;99.90;;;;;;5055926;28;20048;-64
2024/03/25 00:34:14;;;;;;;8.82;4.45;;;5.80;99.90;;;;;;5056016;28;20049;-65
2024/03/25 00:36:40;;;;;;;8.77;4.38;;;5.80;99.90;;;;;;5055919;28;20470;-65
2024/03/25 00:39:05;;;;;;;12.30;4.63;;;5.80;99.90;;;;;;5055882;28;20041;-65
2024/03/25 00:41:31;;;;;;;9.20;4.30;;;5.80;99.90;;;;;;5055372;28;20086;-65
2024/03/25 00:43:57;;;;;;;14.18;5.22;;;5.80;99.90;;;;;;5055683;28;20040;-65
2024/03/25 00:46:23;;;;;;;11.38;4.47;;;5.80;99.90;;;;;;5055967;28;20041;-65
2024/03/25 00:48:48;;;;;;;13.02;5.10;;;5.90;99.90;;;;;;5056045;28;20048;-65
2024/03/25 00:51:14;;;;;;;11.38;4.63;;;5.90;99.90;;;;;;5055940;28;20052;-68
2024/03/25 00:53:40;;;;;;;13.32;4.57;;;5.90;99.90;;;;;;5055779;28;20037;-68
2024/03/25 00:56:06;;;;;;;11.55;4.65;;;5.90;99.90;;;;;;5055312;28;20098;-68
2024/03/25 00:58:31;;;;;;;12.98;4.40;;;5.90;99.90;;;;;;5055601;28;20044;-69
2024/03/25 01:00:57;;;;;;;13.98;4.63;;;5.90;99.90;;;;;;5055635;28;20033;-69
2024/03/25 01:03:23;;;;;;;8.35;4.25;;;5.90;99.90;;;;;;5055507;28;20045;-68
2024/03/25 01:05:49;;;;;;;7.57;3.92;;;6.00;99.90;;;;;;5055974;28;20044;-68
2024/03/25 01:08:15;;;;;;;9.43;4.45;;;6.00;99.90;;;;;;5055631;28;20458;-68
2024/03/25 01:10:40;;;;;;;9.77;3.80;;;6.00;99.90;;;;;;5055652;28;20037;-68
2024/03/25 01:13:06;;;;;;;9.40;4.25;;;6.00;99.90;;;;;;5071882;28;20048;-67
2024/03/25 01:15:32;;;;;;;13.35;4.38;;;6.10;99.90;;;;;;5054962;28;20037;-68
2024/03/25 01:17:58;;;;;;;10.80;4.20;;;6.10;99.90;;;;;;5055366;28;20524;-68
2024/03/25 01:20:24;;;;;;;9.93;4.38;;;6.10;99.90;;;;;;5055090;28;20374;-68
2024/03/25 01:22:49;;;;;;;12.23;3.67;;;6.10;99.90;;;;;;5054913;28;20041;-68
2024/03/25 01:25:15;;;;;;;12.88;4.70;;;6.20;99.90;;;;;;5055256;28;20052;-66
2024/03/25 01:27:41;;;;;;;7.85;4.13;;;6.10;99.90;;;;;;5054904;28;20067;-69
2024/03/25 01:30:07;;;;;;;11.07;3.78;;;6.20;99.90;;;;;;5055044;28;20517;-69
2024/03/25 01:32:33;;;;;;;9.25;4.07;;;6.20;99.90;;;;;;5054940;28;20076;-66
2024/03/25 01:34:59;;;;;;;12.93;4.38;;;6.20;99.90;;;;;;5055113;28;20049;-68
2024/03/25 01:37:25;;;;;;;11.10;4.05;;;6.20;99.90;;;;;;5054694;28;20069;-68
2024/03/25 01:39:51;;;;;;;9.70;3.80;;;6.20;99.90;;;;;;5054873;28;20041;-68
2024/03/25 01:42:16;;;;;;;9.60;3.78;;;6.10;99.90;;;;;;5054957;28;20044;-68
2024/03/25 01:44:42;;;;;;;9.05;3.60;;;6.10;99.90;;;;;;5055046;28;20407;-68
2024/03/25 01:47:08;;;;;;;9.35;3.92;;;6.10;99.90;;;;;;5054609;28;20045;-68
2024/03/25 01:49:34;;;;;;;11.02;4.72;;;6.10;99.90;;;;;;5054925;28;20047;-68
2024/03/25 01:51:59;;;;;;;10.00;4.45;;;6.10;99.90;;;;;;5054660;28;20490;-67
2024/03/25 01:54:25;;;;;;;10.90;4.18;;;6.00;99.90;;;;;;5054763;28;20048;-68
2024/03/25 01:56:53;;;;;;;11.90;4.10;;;6.00;99.90;;;;;;5054447;28;20397;-68
2024/03/25 01:59:18;;;;;;;11.07;3.70;;;6.00;99.90;;;;;;5054279;28;20045;-68
2024/03/25 02:01:44;;;;;;;8.48;3.92;;;6.00;99.90;;;;;;5054543;28;20044;-67
2024/03/25 02:04:12;;;;;;;10.95;4.28;;;6.00;99.90;;;;;;5054713;28;20095;-63
2024/03/25 02:06:37;;;;;;;9.90;3.92;;;6.00;99.90;;;;;;5054451;28;20041;-62
2024/03/25 02:09:03;;;;;;;9.98;4.00;;;5.90;99.90;;;;;;5054257;28;20043;-62
2024/03/25 02:11:29;;;;;;;14.05;4.50;;;5.90;99.90;;;;;;5070931;28;20049;-63
2024/03/25 02:13:55;;;;;;;6.75;3.75;;;5.90;99.90;;;;;;5070936;28;20102;-62
2024/03/25 02:16:21;;;;;;;8.60;3.35;;;5.90;99.90;;;;;;5053849;28;20056;-62
2024/03/25 02:18:46;;;;;;;9.65;3.75;;;5.90;99.90;;;;;;5053786;28;20037;-62
2024/03/25 02:21:12;;;;;;;8.73;3.90;;;5.90;99.90;;;;;;5054185;28;20494;-62
2024/03/25 02:23:38;;;;;;;12.27;4.78;;;5.90;99.90;;;;;;5053781;28;20044;-62
2024/03/25 02:26:04;;;;;;;8.90;3.80;;;5.80;99.90;;;;;;5053775;28;20033;-62
2024/03/25 02:28:29;;;;;;;9.88;4.32;;;5.80;99.90;;;;;;5054039;28;20041;-62
2024/03/25 02:30:55;;;;;;;11.88;3.85;;;5.80;99.90;;;;;;5054137;28;20387;-62
2024/03/25 02:33:21;;;;;;;10.77;3.60;;;5.80;99.90;;;;;;5054028;28;20075;-63
2024/03/25 02:35:47;;;;;;;10.50;3.78;;;5.80;99.90;;;;;;5053408;28;20044;-60
2024/03/25 02:38:14;;;;;;;7.80;3.28;;;5.80;99.90;;;;;;5053792;28;20071;-60
2024/03/25 02:40:40;;;;;;;9.43;3.90;;;5.70;99.90;;;;;;5053827;28;20029;-61
2024/03/25 02:43:07;;;;;;;7.82;3.13;;;5.70;99.90;;;;;;5053524;28;20072;-61
2024/03/25 02:45:33;;;;;;;10.00;3.97;;;5.70;99.90;;;;;;5053536;28;20516;-60
2024/03/25 02:47:58;;;;;;;9.90;4.05;;;5.70;99.90;;;;;;5053657;28;20033;-60
2024/03/25 02:50:24;;;;;;;7.85;3.83;;;5.70;99.90;;;;;;5053065;28;20033;-61
2024/03/25 02:52:50;;;;;;;12.82;3.58;;;5.70;99.90;;;;;;5053378;28;20394;-61
2024/03/25 02:55:16;;;;;;;7.13;3.17;;;5.70;99.90;;;;;;5053394;28;20505;-60
2024/03/25 02:57:41;;;;;;;10.93;4.10;;;5.70;99.90;;;;;;5053336;28;20053;-60
2024/03/25 03:00:09;;;;;;;11.73;4.10;;;5.70;99.90;;;;;;5069851;28;20072;-60
2024/03/25 03:02:34;;;;;;;8.38;4.10;;;5.70;99.90;;;;;;5053485;28;20037;-61
2024/03/25 03:05:02;;;;;;;15.52;3.78;;;5.70;99.90;;;;;;5053272;28;20033;-60
2024/03/25 03:07:28;;;;;;;7.57;3.83;;;5.70;99.90;;;;;;5069927;28;20068;-60
2024/03/25 03:09:53;;;;;;;11.90;3.58;;;5.70;99.90;;;;;;5053177;28;20049;-60
2024/03/25 03:12:19;;;;;;;13.63;3.38;;;5.70;99.90;;;;;;5053301;28;20048;-60
2024/03/25 03:14:45;;;;;;;15.18;3.97;;;5.70;99.90;;;;;;5052971;28;20045;-63
2024/03/25 03:17:11;;;;;;;11.57;3.13;;;5.80;99.90;;;;;;5069257;28;20118;-63
2024/03/25 03:19:37;;;;;;;11.20;3.58;;;5.80;99.90;;;;;;5053115;28;20147;-62
2024/03/25 03:22:04;;;;;;;8.95;3.33;;;5.80;99.90;;;;;;5052920;28;20367;-63
2024/03/25 03:24:30;;;;;;;12.25;3.20;;;5.80;99.90;;;;;;5053166;28;20044;-62
2024/03/25 03:26:55;;;;;;;8.95;3.20;;;5.80;99.90;;;;;;5052759;28;20045;-62
2024/03/25 03:29:21;;;;;;;9.38;3.00;;;5.90;99.90;;;;;;5052962;28;20080;-62
2024/03/25 03:31:47;;;;;;;9.75;2.95;;;5.90;99.90;;;;;;5052672;28;20056;-67
2024/03/25 03:34:13;;;;;;;10.80;3.33;;;5.90;99.90;;;;;;5052718;28;20231;-68
2024/03/25 03:36:40;;;;;;;10.40;2.70;;;5.90;99.90;;;;;;5052628;28;20041;-68
2024/03/25 03:39:08;;;;;;;9.25;3.47;;;5.90;99.90;;;;;;5052543;28;20067;-68
2024/03/25 03:41:34;;;;;;;11.93;3.38;;;6.00;99.90;;;;;;5052543;28;20037;-68
2024/03/25 03:44:00;;;;;;;12.82;3.03;;;6.00;99.90;;;;;;5052820;28;20048;-68
2024/03/25 03:46:25;;;;;;;7.30;3.08;;;6.00;99.90;;;;;;5052429;28;20041;-68
2024/03/25 03:48:51;;;;;;;11.48;3.78;;;6.10;99.90;;;;;;5052708;28;20501;-68
2024/03/25 03:51:17;;;;;;;9.25;3.20;;;6.10;99.90;;;;;;5052429;28;20478;-68
2024/03/25 03:53:43;;;;;;;11.07;3.53;;;6.10;99.90;;;;;;5069094;28;20068;-68
2024/03/25 03:56:09;;;;;;;12.02;3.75;;;6.10;99.90;;;;;;5052361;28;20045;-68
2024/03/25 03:58:35;;;;;;;12.55;3.65;;;6.20;99.90;;;;;;5052246;28;20045;-68
2024/03/25 04:01:00;;;;;;;9.25;4.00;;;6.20;99.90;;;;;;5051888;28;20076;-68
2024/03/25 04:03:26;;;;;;;10.18;3.28;;;6.20;99.90;;;;;;5051589;28;20041;-68
2024/03/25 04:05:52;;;;;;;9.18;3.72;;;6.20;99.90;;;;;;5052195;28;20036;-68
2024/03/25 04:08:17;;;;;;;14.18;4.32;;;6.20;99.90;;;;;;5052367;28;20048;-68
2024/03/25 04:10:43;;;;;;;9.95;4.20;;;6.30;99.90;;;;;;5052372;28;20041;-68
2024/03/25 04:13:09;;;;;;;11.43;3.70;;;6.30;99.90;;;;;;5052357;28;20455;-68
2024/03/25 04:15:35;;;;;;;11.70;3.42;;;6.30;99.90;;;;;;5052276;28;20064;-67
2024/03/25 04:18:01;;;;;;;13.02;3.95;;;6.30;99.90;;;;;;5052305;28;20045;-68
2024/03/25 04:20:27;;;;;;;11.77;3.97;;;6.30;99.90;;;;;;5052413;28;20037;-69
2024/03/25 04:22:52;;;;;;;8.93;4.00;;;6.30;99.90;;;;;;5052076;28;20049;-68
2024/03/25 04:25:18;;;;;;;14.60;4.00;;;6.30;99.90;;;;;;5052124;28;20049;-68
2024/03/25 04:27:44;;;;;;;9.65;3.92;;;6.40;99.90;;;;;;5052324;28;20037;-68
2024/03/25 04:30:11;;;;;;;9.82;3.90;;;6.40;99.90;;;;;;5052171;28;20192;-68
2024/03/25 04:32:37;;;;;;;13.05;4.28;;;6.30;99.90;;;;;;5052132;28;20432;-68
2024/03/25 04:35:03;;;;;;;11.20;4.00;;;6.40;99.90;;;;;;5051904;28;20064;-68
2024/03/25 04:37:29;;;;;;;10.90;4.50;;;6.40;99.90;;;;;;5068753;28;20116;-68
2024/03/25 04:39:55;;;;;;;13.20;4.20;;;6.40;99.90;;;;;;5051757;28;20169;-69
2024/03/25 04:42:21;;;;;;;9.98;3.92;;;6.40;99.90;;;;;;5051846;28;20576;-68
2024/03/25 04:44:46;;;;;;;10.13;4.53;;;6.40;99.90;;;;;;5068651;28;20037;-68
2024/03/25 04:47:12;;;;;;;13.98;4.10;;;6.50;99.90;;;;;;5051963;28;20037;-68
2024/03/25 04:49:39;;;;;;;14.45;4.32;;;6.50;99.90;;;;;;5052023;28;20545;-68
2024/03/25 04:52:05;;;;;;;15.32;4.03;;;6.50;99.90;;;;;;5051703;28;20052;-68
2024/03/25 04:54:31;;;;;;;10.30;4.40;;;6.50;99.90;;;;;;5052180;28;20041;-68
2024/03/25 04:56:56;;;;;;;11.43;4.43;;;6.50;99.90;;;;;;5051852;28;20073;-68
2024/03/25 04:59:22;;;;;;;12.23;4.00;;;6.50;99.90;;;;;;5051927;28;20382;-69
2024/03/25 05:01:48;;;;;;;12.88;4.10;;;6.50;99.90;;;;;;5051857;28;20103;-68
2024/03/25 05:04:14;;;;;;;14.20;5.25;;;6.50;99.90;;;;;;5051840;28;20037;-68
2024/03/25 05:06:39;;;;;;;11.77;4.00;;;6.50;99.90;;;;;;5051518;28;20045;-68
2024/03/25 05:09:06;;;;;;;19.25;4.60;;;6.50;99.90;;;;;;5051874;28;20095;-68
2024/03/25 05:11:32;;;;;;;11.63;4.20;;;6.50;99.90;;;;;;5051387;28;20037;-68
2024/03/25 05:13:57;;;;;;;20.02;4.40;;;6.50;99.90;;;;;;5053658;28;20102;-68
2024/03/25 05:16:23;;;;;;;14.18;4.30;;;6.50;99.90;;;;;;5055094;28;20399;-63
2024/03/25 05:18:49;;;;;;;14.90;4.63;;;6.50;99.90;;;;;;5055229;28;20092;-63
2024/03/25 05:21:15;;;;;;;12.98;4.47;;;6.60;99.90;;;;;;5071611;28;20060;-63
2024/03/25 05:23:40;;;;;;;13.43;4.70;;;6.60;99.90;;;;;;5054985;28;20474;-68
2024/03/25 05:26:06;;;;;;;13.65;3.92;;;6.60;99.90;;;;;;5054894;28;20041;-63
2024/03/25 05:28:32;;;;;;;12.02;4.22;;;6.60;99.90;;;;;;5055028;28;20090;-63
2024/03/25 05:30:58;;;;;;;12.30;4.50;;;6.60;99.90;;;;;;5054676;28;20044;-63
2024/03/25 05:33:24;;;;;;;10.35;4.57;;;6.60;99.90;;;;;;5055064;28;20045;-63
2024/03/25 05:35:49;;;;;;;13.32;4.10;;;6.60;99.90;;;;;;5054746;28;20052;-63
2024/03/25 05:38:15;;;;;;;13.32;4.03;;;6.60;99.90;;;;;;5054827;28;20052;-63
2024/03/25 05:40:41;;;;;;;15.57;4.93;;;6.60;99.90;;;;;;5054674;28;20037;-60
2024/03/25 05:43:07;;;;;;;14.00;4.22;;;6.60;99.90;;;;;;5054709;28;20037;-60
2024/03/25 05:45:33;;;;;;;14.77;4.05;;;6.60;99.90;;;;;;5054738;28;20041;-60
2024/03/25 05:47:58;;;;;;;14.88;4.65;;;6.60;99.90;;;;;;5054171;28;20079;-60
2024/03/25 05:50:24;;;;;;;14.55;4.07;;;6.70;99.90;;;;;;5054693;28;20044;-60
2024/03/25 05:52:50;;;;;;;15.95;4.30;;;6.60;99.90;;;;;;5054470;28;20037;-60
2024/03/25 05:55:16;;;;;;;12.85;4.07;;;6.70;99.90;;;;;;5054318;28;20084;-60
2024/03/25 05:57:41;;;;;;;14.98;4.28;;;6.70;99.90;;;;;;5054370;28;20063;-60
2024/03/25 06:00:07;;;;;;;17.52;4.60;;;6.70;99.90;;;;;;5054546;28;20033;-60
2024/03/25 06:02:37;;;;;;;14.27;4.15;;;6.70;99.90;;;;;;5054598;28;20544;-60
2024/03/25 06:05:04;;;;;;;16.90;4.60;;;6.70;99.90;;;;;;5054203;28;20076;-60
2024/03/25 06:07:30;;;;;;;9.90;4.78;;;6.80;99.90;;;;;;5054329;28;20119;-61
2024/03/25 06:09:56;;;;;;;13.23;4.35;;;6.80;99.90;;;;;;5054398;28;20516;-61
2024/03/25 06:12:22;;;;;;;13.15;4.10;;;6.80;99.90;;;;;;5054678;28;20417;-60
2024/03/25 06:14:47;;;;;;;12.23;4.13;;;6.90;99.90;;;;;;5054341;28;20041;-61
2024/03/25 06:17:13;;;;;;;15.10;4.50;;;6.80;99.90;;;;;;5053879;28;20057;-61
2024/03/25 06:19:39;;;;;;;15.05;4.20;;;6.90;99.90;;;;;;5053915;28;20033;-60
2024/03/25 06:22:05;;;;;;;12.60;3.72;;;6.90;99.90;;;;;;5053971;28;20472;-60
2024/03/25 06:24:30;;;;;;;12.32;4.05;;;6.90;99.90;;;;;;5053641;28;20045;-61
2024/03/25 06:26:56;;;;;;;21.17;4.50;;;6.90;99.90;;;;;;5053958;28;20048;-60
2024/03/25 06:29:23;;;;;;;15.50;3.78;;;7.00;99.90;;;;;;5054205;28;20077;-61
2024/03/25 06:34:33;;;;;;;21.48;4.88;;;7.00;99.90;;;;;;5054064;28;20041;-61
2024/03/25 06:37:00;;;;;;;15.70;3.55;;;7.10;99.90;;;;;;5054015;28;20098;-61
2024/03/25 06:39:26;;;;;;;14.90;4.00;;;7.10;99.90;;;;;;5053796;28;20128;-61
2024/03/25 06:41:52;;;;;;;13.57;3.78;;;7.10;99.90;;;;;;5053584;28;20037;-61
2024/03/25 06:44:18;;;;;;;16.77;3.88;;;7.20;99.90;;;;;;5053635;28;20486;-61
2024/03/25 06:46:43;;;;;;;14.25;3.72;;;7.20;99.90;;;;;;5053502;28;20037;-61
2024/03/25 06:49:09;;;;;;;17.80;3.78;;;7.30;99.90;;;;;;5053808;28;20048;-61
2024/03/25 06:51:35;;;;;;;22.92;4.72;;;7.40;99.90;;;;;;5053452;28;20041;-61
2024/03/25 06:54:01;;;;;;;13.90;3.83;;;7.40;99.90;;;;;;5053441;28;20052;-61
2024/03/25 06:56:27;;;;;;;13.27;3.88;;;7.50;99.90;;;;;;5053670;28;20044;-61
2024/03/25 06:58:53;;;;;;;14.77;4.00;;;7.60;99.90;;;;;;5053263;28;20041;-61
2024/03/25 07:01:19;;;;;;;14.30;3.70;;;7.60;99.90;;;;;;5053410;28;20064;-65
2024/03/25 07:03:45;;;;;;;11.63;3.90;;;7.70;99.90;;;;;;5053214;28;20047;-65
2024/03/25 07:06:10;;;;;;;12.45;3.72;;;7.70;99.90;;;;;;5053118;28;20478;-65
2024/03/25 07:08:36;;;;;;;19.58;4.38;;;7.80;99.90;;;;;;5053124;28;20048;-64
2024/03/25 07:11:03;;;;;;;17.33;3.78;;;7.80;99.90;;;;;;5053235;28;20040;-65
2024/03/25 07:13:29;;;;;;;16.77;4.18;;;7.80;99.90;;;;;;5053263;28;20048;-65
2024/03/25 07:15:55;;;;;;;12.95;3.67;;;7.80;99.90;;;;;;5052420;28;20057;-66
2024/03/25 07:18:21;;;;;;;13.40;3.92;;;7.90;99.90;;;;;;5053132;28;20067;-65
2024/03/25 07:20:47;;;;;;;15.82;3.50;;;7.90;99.90;;;;;;5052809;28;20462;-65
2024/03/25 07:23:13;;;;;;;16.52;3.55;;;8.00;99.90;;;;;;5052609;28;20041;-65
2024/03/25 07:25:40;;;;;;;15.48;4.15;;;8.00;99.90;;;;;;5052924;28;20506;-64
2024/03/25 07:28:05;;;;;;;15.48;3.00;;;8.10;99.90;;;;;;5052717;28;20049;-65
2024/03/25 07:30:32;;;;;;;10.38;3.08;;;8.20;99.90;;;;;;5069483;28;20060;-64
2024/03/25 07:32:57;;;;;;;12.70;3.05;;;8.30;99.90;;;;;;5069665;28;20044;-65
2024/03/25 07:35:23;;;;;;;13.10;2.97;;;8.30;99.90;;;;;;5052637;28;20048;-65
2024/03/25 07:37:52;;;;;;;11.55;3.15;;;8.40;99.90;;;;;;5069185;28;20037;-65
2024/03/25 07:40:18;;;;;;;12.55;3.20;;;8.40;99.90;;;;;;5052328;28;20152;-65
2024/03/25 07:42:43;;;;;;;10.80;2.90;;;8.50;99.90;;;;;;5052837;28;20041;-65
2024/03/25 07:45:09;;;;;;;11.75;3.60;;;8.50;99.90;;;;;;5052764;28;20132;-65
2024/03/25 07:47:35;;;;;;;10.73;2.85;;;8.50;99.90;;;;;;5052232;28;20048;-65
2024/03/25 07:50:01;;;;;;;15.38;3.15;;;8.60;99.90;;;;;;5052440;28;20082;-64
2024/03/25 07:52:27;;;;;;;15.68;3.55;;;8.60;99.90;;;;;;5052299;28;20116;-64
2024/03/25 07:54:52;;;;;;;13.57;3.22;;;8.70;99.90;;;;;;5052349;28;20123;-65
2024/03/25 07:57:19;;;;;;;11.63;2.70;;;8.70;99.90;;;;;;5052673;28;20060;-64
2024/03/25 07:59:45;;;;;;;26.45;3.90;;;8.80;99.90;;;;;;5052085;28;20040;-65
2024/03/25 08:02:10;;;;;;;12.95;3.22;;;8.80;99.90;;;;;;5052547;28;20044;-65
2024/03/25 08:04:36;;;;;;;11.27;2.83;;;8.90;99.90;;;;;;5052304;28;20040;-64
2024/03/25 08:07:02;;;;;;;12.48;3.05;;;8.90;99.90;;;;;;5052174;28;20091;-65
2024/03/25 08:09:28;;;;;;;13.07;3.22;;;8.90;99.90;;;;;;5052807;28;20095;-65
2024/03/25 08:11:54;;;;;;;14.05;3.00;;;9.00;99.90;;;;;;5052147;28;20052;-64
2024/03/25 08:14:20;;;;;;;12.40;2.97;;;9.10;99.90;;;;;;5052500;28;20128;-65
2024/03/25 08:16:45;;;;;;;16.08;3.10;;;9.10;99.90;;;;;;5051896;28;20048;-64
2024/03/25 08:19:11;;;;;;;13.88;2.72;;;9.10;99.90;;;;;;5069095;28;20068;-65
2024/03/25 08:21:37;;;;;;;13.23;3.05;;;9.20;99.90;;;;;;5035566;28;20041;-64
2024/03/25 08:24:03;;;;;;;14.07;3.33;;;9.20;99.90;;;;;;5052062;28;20073;-65
2024/03/25 08:26:28;;;;;;;16.15;2.92;;;9.30;99.90;;;;;;5051974;28;20118;-65
2024/03/25 08:28:54;;;;;;;12.60;2.70;;;9.40;99.90;;;;;;5052314;28;20056;-64
2024/03/25 08:31:20;;;;;;;8.00;2.63;;;9.50;99.90;;;;;;5052137;28;20053;-65
2024/03/25 08:33:46;;;;;;;11.18;2.78;;;9.50;99.90;;;;;;5052346;28;20041;-64
2024/03/25 08:36:11;;;;;;;10.60;2.47;;;9.60;99.90;;;;;;5052123;28;20083;-65
2024/03/25 08:38:37;;;;;;;12.25;2.75;;;9.60;99.90;;;;;;5051711;28;20082;-64
2024/03/25 08:41:03;;;;;;;12.05;2.78;;;9.60;99.90;;;;;;5051947;28;20478;-64
2024/03/25 08:43:29;;;;;;;9.32;2.75;;;9.60;99.90;;;;;;5051995;28;20037;-65
2024/03/25 08:45:55;;;;;;;10.98;2.30;;;9.70;99.90;;;;;;5051852;28;20048;-65
2024/03/25 08:48:21;;;;;;;15.02;3.10;;;9.80;99.90;;;;;;5053196;28;20090;-64
2024/03/25 08:50:47;;;;;;;10.95;2.53;;;9.80;99.90;;;;;;5055870;28;20049;-64
2024/03/25 08:53:12;;;;;;;7.18;2.08;;;9.80;99.90;;;;;;5055998;28;20044;-64
2024/03/25 08:55:38;;;;;;;9.18;2.85;;;9.90;99.90;;;;;;5055864;28;20041;-64
2024/03/25 08:58:04;;;;;;;9.95;2.50;;;9.90;99.90;;;;;;5055628;28;20481;-64
2024/03/25 09:00:30;;;;;;;7.80;2.35;;;10.00;99.90;;;;;;5055812;28;20086;-65
2024/03/25 09:02:56;;;;;;;11.32;2.60;;;10.00;99.90;;;;;;5055500;28;20049;-64
2024/03/25 09:05:22;;;;;;;16.00;2.17;;;10.10;99.90;;;;;;5055643;28;20086;-64
2024/03/25 09:07:49;;;;;;;13.68;2.60;;;10.10;99.90;;;;;;5055561;28;20036;-64
2024/03/25 09:13:00;;;;;;;16.27;2.58;;;10.20;99.90;;;;;;5055432;28;20068;-66
2024/03/25 09:15:25;;;;;;;10.32;2.58;;;10.30;99.90;;;;;;5055385;28;20091;-65
2024/03/25 09:17:51;;;;;;;9.52;2.50;;;10.30;99.90;;;;;;5055487;28;20052;-65
2024/03/25 09:20:17;;;;;;;8.65;2.42;;;10.40;99.90;;;;;;5055183;28;20516;-65
2024/03/25 09:22:43;;;;;;;8.27;2.13;;;10.40;99.90;;;;;;5055371;28;20123;-68
2024/03/25 09:25:09;;;;;;;9.10;2.60;;;10.40;99.90;;;;;;5071807;28;20497;-61
2024/03/25 09:27:35;;;;;;;9.75;2.80;;;10.40;99.90;;;;;;5055172;28;20091;-61
2024/03/25 09:30:01;;;;;;;6.50;2.03;;;10.40;99.90;;;;;;5054967;28;20041;-61
2024/03/25 09:32:27;;;;;;;14.60;2.58;;;10.40;99.90;;;;;;5054217;28;20044;-60
2024/03/25 09:34:53;;;;;;;6.35;2.00;;;10.40;99.90;;;;;;5055071;28;20049;-60
2024/03/25 09:37:18;;;;;;;7.45;2.58;;;10.40;99.90;;;;;;5054726;28;20052;-61
2024/03/25 09:39:44;;;;;;;9.65;2.30;;;10.50;99.90;;;;;;5054468;28;20063;-61
2024/03/25 09:42:10;;;;;;;13.77;2.70;;;10.50;99.90;;;;;;5054813;28;20493;-61
2024/03/25 09:44:36;;;;;;;7.45;2.20;;;10.60;99.90;;;;;;5038115;28;20033;-61
2024/03/25 09:47:01;;;;;;;11.02;2.38;;;10.60;99.90;;;;;;5054407;28;20504;-61
2024/03/25 09:49:27;;;;;;;12.18;3.00;;;10.60;99.90;;;;;;5055010;28;20075;-61
2024/03/25 09:51:53;;;;;;;6.13;2.03;;;10.60;99.90;;;;;;5054650;28;20065;-61
2024/03/25 09:54:19;;;;;;;9.52;2.85;;;10.70;99.90;;;;;;5037825;28;20079;-61
2024/03/25 09:56:45;;;;;;;8.95;2.88;;;10.90;99.90;;;;;;5054588;28;20118;-61
2024/03/25 09:59:11;;;;;;;10.45;2.75;;;10.90;99.90;;;;;;5054743;28;20037;-61
2024/03/25 10:01:36;;;;;;;12.85;2.78;;;11.00;99.90;;;;;;5054440;28;20063;-61
2024/03/25 10:04:02;;;;;;;11.93;3.30;;;11.00;99.90;;;;;;5054644;28;20037;-61
2024/03/25 10:06:28;;;;;;;10.25;2.63;;;11.10;99.90;;;;;;5054247;28;20385;-61
2024/03/25 10:08:57;;;;;;;10.38;2.67;;;11.10;99.90;;;;;;5054292;28;20067;-61
2024/03/25 10:11:22;;;;;;;9.85;2.53;;;11.10;99.90;;;;;;5054524;28;20373;-61
2024/03/25 10:13:48;;;;;;;9.75;2.47;;;11.10;99.90;;;;;;5054412;28;20057;-61
2024/03/25 10:16:14;;;;;;;9.18;2.20;;;11.10;99.90;;;;;;5053786;28;20095;-61
2024/03/25 10:18:40;;;;;;;11.43;2.63;;;11.10;99.90;;;;;;5054341;28;20478;-61
2024/03/25 10:21:06;;;;;;;7.47;2.15;;;11.00;99.90;;;;;;5054155;28;20061;-61
2024/03/25 10:23:34;;;;;;;8.20;2.72;;;11.00;99.90;;;;;;5054357;28;20072;-61
2024/03/25 10:26:00;;;;;;;6.78;2.17;;;11.00;99.90;;;;;;5070759;28;20462;-60
2024/03/25 10:28:26;;;;;;;7.68;2.08;;;11.10;99.90;;;;;;5053962;28;20052;-60
2024/03/25 10:30:52;;;;;;;8.73;2.60;;;11.00;99.90;;;;;;5054184;28;20041;-61
2024/03/25 10:33:18;;;;;;;9.60;3.00;;;10.80;99.90;;;;;;5053607;28;20581;-62
2024/03/25 10:35:43;;;;;;;8.30;2.05;;;10.80;99.90;;;;;;5053440;28;20054;-61
2024/03/25 10:38:10;;;;;;;11.77;2.53;;;10.90;99.90;;;;;;5053384;28;20051;-61
2024/03/25 10:40:39;;;;;;;9.85;2.28;;;10.80;99.90;;;;;;5053759;28;20133;-61
2024/03/25 10:43:08;;;;;;;6.88;2.33;;;10.80;99.90;;;;;;5053934;28;20128;-68
2024/03/25 10:45:34;;;;;;;7.35;2.13;;;10.90;99.90;;;;;;5053624;28;20056;-68
2024/03/25 10:48:00;;;;;;;9.75;2.60;;;11.00;99.90;;;;;;5053533;28;20402;-68
2024/03/25 10:50:26;;;;;;;11.95;2.55;;;11.10;99.90;;;;;;5053731;28;20417;-69
2024/03/25 10:52:51;;;;;;;7.18;2.35;;;11.10;99.90;;;;;;5053529;28;20068;-68
2024/03/25 10:55:17;;;;;;;7.55;2.30;;;11.20;99.90;;;;;;5053695;28;20091;-69
2024/03/25 10:57:43;;;;;;;12.98;3.58;;;11.10;99.90;;;;;;5053297;28;20489;-69
2024/03/25 11:00:14;;;;;;;8.90;2.60;;;11.10;99.90;;;;;;5053255;28;20060;-69
2024/03/25 11:02:40;;;;;;;9.65;2.45;;;11.10;99.90;;;;;;5053515;28;20066;-68
2024/03/25 11:05:06;;;;;;;9.63;2.60;;;11.00;99.90;;;;;;5036620;28;20044;-69
2024/03/25 11:07:32;;;;;;;9.48;2.47;;;11.00;99.90;;;;;;5052877;28;20067;-69
2024/03/25 11:09:58;;;;;;;11.48;2.13;;;11.00;99.90;;;;;;5053315;28;20037;-69
2024/03/25 11:12:24;;;;;;;6.07;2.60;;;11.00;99.90;;;;;;5052608;28;20079;-69
2024/03/25 11:14:50;;;;;;;12.48;2.60;;;11.00;99.90;;;;;;5036270;28;20052;-61
2024/03/25 11:17:15;;;;;;;11.88;2.42;;;11.00;99.90;;;;;;5049919;28;20510;-61
2024/03/25 11:19:41;;;;;;;8.73;2.45;;;11.10;99.90;;;;;;5033835;28;20069;-61
2024/03/25 11:22:07;;;;;;;9.45;2.60;;;11.10;99.90;;;;;;5050358;28;20037;-61
2024/03/25 11:24:35;;;;;;;12.15;2.30;;;11.20;99.90;;;;;;5051868;28;20074;-61
2024/03/25 11:27:01;;;;;;;8.90;2.40;;;11.20;99.90;;;;;;5048838;28;20056;-61
2024/03/25 11:29:27;;;;;;;8.18;2.28;;;11.30;99.90;;;;;;5035447;28;20033;-61
2024/03/25 11:31:52;;;;;;;8.68;2.28;;;11.30;99.90;;;;;;5052548;28;20401;-61
2024/03/25 11:34:18;;;;;;;8.60;2.63;;;11.40;99.90;;;;;;5049212;28;20041;-60
2024/03/25 11:36:44;;;;;;;11.50;2.28;;;11.50;99.90;;;;;;5051588;28;20075;-69
2024/03/25 11:39:12;;;;;;;14.30;3.42;;;11.40;99.90;;;;;;5032298;28;20550;-70
2024/03/25 11:41:38;;;;;;;13.48;3.03;;;11.50;99.90;;;;;;5035464;28;20460;-70
2024/03/25 11:44:03;;;;;;;13.07;3.63;;;11.40;99.90;;;;;;5052162;28;20055;-70
2024/03/25 11:46:29;;;;;;;10.95;3.47;;;11.50;99.90;;;;;;5052352;28;20045;-65
2024/03/25 11:48:55;;;;;;;11.90;3.78;;;11.60;99.90;;;;;;5036248;28;20119;-70
2024/03/25 11:51:21;;;;;;;9.50;2.85;;;11.60;99.90;;;;;;5052314;28;20057;-70
2024/03/25 11:53:50;;;;;;;9.13;2.53;;;11.60;99.90;;;;;;5052583;28;20111;-70
2024/03/25 11:56:16;;;;;;;14.07;3.75;;;11.70;99.90;;;;;;5051611;28;20098;-69
2024/03/25 11:58:41;;;;;;;11.82;3.33;;;11.60;99.90;;;;;;5033531;28;20041;-61
2024/03/25 12:01:10;;;;;;;10.05;2.75;;;11.70;99.90;;;;;;5032484;28;20046;-61
2024/03/25 12:03:35;;;;;;;9.73;3.13;;;11.80;99.90;;;;;;5034846;28;20444;-61
2024/03/25 12:06:02;;;;;;;11.13;2.30;;;12.00;99.90;;;;;;5052074;28;20052;-61
2024/03/25 12:08:29;;;;;;;12.90;2.85;;;12.20;99.90;;;;;;5051726;28;20079;-61
2024/03/25 12:13:41;;;;;;;8.57;2.05;;;12.40;99.90;;;;;;5051910;28;20379;-61
2024/03/25 12:16:07;;;;;;;9.40;2.60;;;12.40;99.90;;;;;;5051848;28;20053;-61
2024/03/25 12:18:33;;;;;;;11.13;2.47;;;12.40;99.90;;;;;;5052026;28;20049;-61
2024/03/25 12:20:59;;;;;;;8.55;2.20;;;12.40;99.90;;;;;;5052174;28;20094;-70
2024/03/25 12:23:25;;;;;;;12.20;2.88;;;12.40;99.90;;;;;;5053645;28;20033;-70
2024/03/25 12:25:51;;;;;;;8.05;2.35;;;12.40;99.90;;;;;;5056086;28;20538;-70
2024/03/25 12:28:17;;;;;;;9.98;2.38;;;12.40;99.90;;;;;;5056158;28;20083;-70
2024/03/25 12:30:42;;;;;;;10.85;2.58;;;12.40;99.90;;;;;;5055945;28;20037;-70
2024/03/25 12:33:08;;;;;;;10.77;2.63;;;12.40;99.90;;;;;;5056332;28;20057;-70
2024/03/25 12:35:34;;;;;;;21.63;10.98;;;12.40;99.90;;;;;;5055794;28;20382;-70
2024/03/25 12:38:00;;;;;;;19.50;9.40;;;12.50;99.90;;;;;;5055683;28;20425;-70
2024/03/25 12:40:25;;;;;;;8.60;2.95;;;12.50;99.90;;;;;;5056082;28;20064;-70
2024/03/25 12:42:51;;;;;;;10.75;2.67;;;12.40;99.90;;;;;;5055582;28;20033;-70
2024/03/25 12:45:17;;;;;;;13.68;4.10;;;12.20;99.90;;;;;;5038613;28;20116;-70
2024/03/25 12:47:43;;;;;;;13.35;4.30;;;12.10;99.90;;;;;;5055713;28;20098;-70